createdAt,value
2018-12-02T00:00:52.352Z,0.40
2018-12-02T00:03:20.551Z,0.37
2018-12-02T00:05:49.293Z,0.28
2018-12-02T00:08:18.504Z,0.19
2018-12-02T00:10:47.272Z,0.19
2018-12-02T00:13:16.047Z,0.24
2018-12-02T00:15:44.889Z,0.17
2018-12-02T00:18:14.401Z,0.12
2018-12-02T00:20:43.632Z,0.13
2018-12-02T00:23:12.493Z,0.04
2018-12-02T00:25:41.303Z,0.12
2018-12-02T00:28:11.067Z,0.16
2018-12-02T00:30:40.726Z,0.18
2018-12-02T00:33:09.616Z,0.11
2018-12-02T00:35:38.418Z,0.10
2018-12-02T00:38:08.761Z,0.15
2018-12-02T00:40:37.555Z,0.13
2018-12-02T00:43:07.904Z,0.10
2018-12-02T00:45:38.197Z,0.10
2018-12-02T00:48:09.008Z,0.10
2018-12-02T00:50:38.428Z,0.09
2018-12-02T00:53:08.773Z,0.10
2018-12-02T00:55:40.044Z,0.02
2018-12-02T00:58:15.304Z,0.02
2018-12-02T01:00:44.168Z,0.02
2018-12-02T01:03:13.124Z,0.00
2018-12-02T01:05:41.931Z,-0.04
2018-12-02T01:08:10.693Z,-0.12
2018-12-02T01:10:39.575Z,-0.18
2018-12-02T01:13:10.327Z,-0.18
2018-12-02T01:15:40.370Z,-0.20
2018-12-02T01:18:09.755Z,-0.26
2018-12-02T01:20:39.478Z,-0.25
2018-12-02T01:23:09.091Z,-0.25
2018-12-02T01:25:38.076Z,-0.27
2018-12-02T01:28:07.428Z,-0.32
2018-12-02T01:30:36.825Z,-0.32
2018-12-02T01:33:05.791Z,-0.29
2018-12-02T01:35:34.602Z,-0.37
2018-12-02T01:38:03.475Z,-0.40
2018-12-02T01:40:32.269Z,-0.40
2018-12-02T01:43:01.133Z,-0.43
2018-12-02T01:45:29.994Z,-0.49
2018-12-02T01:47:58.804Z,-0.48
2018-12-02T01:50:27.836Z,-0.57
2018-12-02T01:52:57.942Z,-0.57
2018-12-02T01:55:26.712Z,-0.58
2018-12-02T01:57:55.561Z,-0.62
2018-12-02T02:00:25.706Z,-0.63
2018-12-02T02:02:55.582Z,-0.65
2018-12-02T02:05:25.263Z,-0.59
2018-12-02T02:07:54.073Z,-0.55
2018-12-02T02:10:27.089Z,-0.55
2018-12-02T02:12:55.952Z,-0.60
2018-12-02T02:15:25.065Z,-0.68
2018-12-02T02:17:53.919Z,-0.69
2018-12-02T02:20:24.774Z,-0.70
2018-12-02T02:22:54.075Z,-0.82
2018-12-02T02:25:24.800Z,-0.76
2018-12-02T02:27:56.642Z,-0.73
2018-12-02T02:30:26.557Z,-0.72
2018-12-02T02:32:55.357Z,-0.74
2018-12-02T02:35:24.234Z,-0.76
2018-12-02T02:37:54.316Z,-0.80
2018-12-02T02:40:25.111Z,-0.76
2018-12-02T02:42:53.973Z,-0.83
2018-12-02T02:45:22.771Z,-0.83
2018-12-02T02:47:51.609Z,-0.78
2018-12-02T02:50:22.615Z,-0.72
2018-12-02T02:53:03.211Z,-0.70
2018-12-02T02:55:32.008Z,-0.78
2018-12-02T02:58:00.774Z,-0.78
2018-12-02T03:00:30.070Z,-0.70
2018-12-02T03:02:59.068Z,-0.68
2018-12-02T03:05:27.897Z,-0.70
2018-12-02T03:07:56.710Z,-0.65
2018-12-02T03:10:25.514Z,-0.59
2018-12-02T03:12:54.786Z,-0.54
2018-12-02T03:15:24.264Z,-0.64
2018-12-02T03:17:53.115Z,-0.64
2018-12-02T03:20:22.892Z,-0.66
2018-12-02T03:22:52.806Z,-0.78
2018-12-02T03:25:23.509Z,-0.78
2018-12-02T03:27:52.854Z,-0.83
2018-12-02T03:30:22.532Z,-0.90
2018-12-02T03:32:51.732Z,-0.90
2018-12-02T03:35:22.260Z,-0.89
2018-12-02T03:37:51.366Z,-0.93
2018-12-02T03:40:21.959Z,-0.99
2018-12-02T03:42:51.442Z,-0.96
2018-12-02T03:45:21.411Z,-0.89
2018-12-02T03:47:50.230Z,-0.88
2018-12-02T03:50:22.872Z,-0.82
2018-12-02T03:52:52.126Z,-0.87
2018-12-02T03:55:20.973Z,-0.88
2018-12-02T03:57:49.791Z,-0.90
2018-12-02T04:00:26.344Z,-0.84
2018-12-02T04:02:56.545Z,-0.77
2018-12-02T04:05:26.314Z,-0.81
2018-12-02T04:07:55.130Z,-0.78
2018-12-02T04:10:24.140Z,-0.88
2018-12-02T04:12:53.475Z,-0.88
2018-12-02T04:15:23.145Z,-1.07
2018-12-02T04:17:51.993Z,-1.17
2018-12-02T04:20:21.472Z,-1.24
2018-12-02T04:22:51.333Z,-1.21
2018-12-02T04:25:25.130Z,-1.14
2018-12-02T04:27:53.943Z,-1.11
2018-12-02T04:30:23.433Z,-1.07
2018-12-02T04:32:53.045Z,-1.09
2018-12-02T04:35:25.491Z,-1.02
2018-12-02T04:37:54.342Z,-0.99
2018-12-02T04:40:23.146Z,-0.98
2018-12-02T04:42:52.345Z,-0.92
2018-12-02T04:45:21.363Z,-0.97
2018-12-02T04:47:50.425Z,-1.00
2018-12-02T04:50:21.498Z,-1.01
2018-12-02T04:52:50.353Z,-0.97
2018-12-02T04:55:19.174Z,-1.00
2018-12-02T04:57:47.966Z,-1.01
2018-12-02T05:00:17.731Z,-1.04
2018-12-02T05:02:48.541Z,-1.08
2018-12-02T05:05:18.537Z,-1.10
2018-12-02T05:07:47.375Z,-1.12
2018-12-02T05:10:17.856Z,-1.12
2018-12-02T05:12:46.771Z,-1.15
2018-12-02T05:15:16.575Z,-1.13
2018-12-02T05:17:45.444Z,-1.07
2018-12-02T05:20:18.451Z,-1.12
2018-12-02T05:22:47.260Z,-1.04
2018-12-02T05:25:17.835Z,-1.05
2018-12-02T05:27:45.577Z,-1.13
2018-12-02T05:30:22.735Z,-1.12
2018-12-02T05:32:52.462Z,-1.14
2018-12-02T05:35:21.322Z,-1.16
2018-12-02T05:37:50.465Z,-1.12
2018-12-02T05:40:21.287Z,-1.16
2018-12-02T05:42:50.231Z,-1.17
2018-12-02T05:45:19.894Z,-1.14
2018-12-02T05:47:48.744Z,-1.06
2018-12-02T05:50:18.594Z,-1.02
2018-12-02T05:52:54.915Z,-1.00
2018-12-02T05:55:25.761Z,-1.00
2018-12-02T05:57:54.636Z,-1.05
2018-12-02T06:00:23.753Z,-1.03
2018-12-02T06:02:52.558Z,-1.02
2018-12-02T06:05:21.559Z,-0.99
2018-12-02T06:07:50.396Z,-1.08
2018-12-02T06:10:21.108Z,-1.08
2018-12-02T06:12:50.116Z,-1.18
2018-12-02T06:15:19.835Z,-1.13
2018-12-02T06:17:48.824Z,-1.02
2018-12-02T06:20:22.730Z,-0.95
2018-12-02T06:22:53.327Z,-1.01
2018-12-02T06:25:22.249Z,-1.00
2018-12-02T06:27:51.322Z,-0.97
2018-12-02T06:30:25.021Z,-0.99
2018-12-02T06:33:03.575Z,-1.02
2018-12-02T06:35:32.428Z,-1.03
2018-12-02T06:38:02.556Z,-0.93
2018-12-02T06:40:31.455Z,-0.99
2018-12-02T06:43:00.321Z,-0.93
2018-12-02T06:45:29.201Z,-0.96
2018-12-02T06:47:58.307Z,-0.94
2018-12-02T06:50:27.953Z,-0.87
2018-12-02T06:52:57.682Z,-0.82
2018-12-02T06:55:40.578Z,-0.73
2018-12-02T06:58:31.958Z,-0.63
2018-12-02T07:01:19.344Z,-0.55
2018-12-02T07:03:53.937Z,-0.56
2018-12-02T07:06:22.914Z,-0.49
2018-12-02T07:08:51.693Z,-0.44
2018-12-02T07:11:20.464Z,-0.37
2018-12-02T07:13:49.312Z,-0.25
2018-12-02T07:16:18.094Z,-0.21
2018-12-02T07:18:49.131Z,-0.19
2018-12-02T07:21:21.088Z,-0.26
2018-12-02T07:23:54.340Z,-0.25
2018-12-02T07:26:25.484Z,-0.25
2018-12-02T07:28:54.332Z,-0.17
2018-12-02T07:31:23.146Z,-0.17
2018-12-02T07:33:51.993Z,-0.20
2018-12-02T07:36:20.831Z,-0.11
2018-12-02T07:39:00.388Z,-0.07
2018-12-02T07:41:29.220Z,-0.06
2018-12-02T07:43:58.030Z,-0.02
2018-12-02T07:46:26.814Z,0.07
2018-12-02T07:48:55.896Z,0.21
2018-12-02T07:51:24.724Z,0.32
2018-12-02T07:53:53.660Z,0.16
2018-12-02T07:56:22.470Z,0.28
2018-12-02T07:58:51.366Z,0.42
2018-12-02T08:01:20.214Z,0.59
2018-12-02T08:03:49.047Z,0.67
2018-12-02T08:06:17.836Z,0.76
2018-12-02T08:08:46.657Z,0.84
2018-12-02T08:11:15.509Z,0.86
2018-12-02T08:13:44.302Z,0.90
2018-12-02T08:16:13.119Z,0.97
2018-12-02T08:18:41.936Z,0.97
2018-12-02T08:21:10.719Z,1.06
2018-12-02T08:23:39.469Z,1.13
2018-12-02T08:26:08.293Z,1.20
2018-12-02T08:28:37.082Z,1.28
2018-12-02T08:31:06.006Z,1.26
2018-12-02T08:33:34.804Z,1.30
2018-12-02T08:36:03.601Z,1.30
2018-12-02T08:38:32.377Z,1.39
2018-12-02T08:41:01.226Z,1.43
2018-12-02T08:43:30.076Z,1.48
2018-12-02T08:45:58.973Z,1.55
2018-12-02T08:48:27.800Z,1.62
2018-12-02T08:50:56.612Z,1.69
2018-12-02T08:53:25.447Z,1.76
2018-12-02T08:55:54.272Z,1.90
2018-12-02T08:58:23.123Z,1.86
2018-12-02T09:00:51.927Z,1.92
2018-12-02T09:03:20.681Z,1.98
2018-12-02T09:05:49.514Z,1.99
2018-12-02T09:08:18.389Z,2.01
2018-12-02T09:10:47.269Z,2.07
2018-12-02T09:13:16.170Z,2.11
2018-12-02T09:15:45.050Z,2.26
2018-12-02T09:18:13.864Z,2.21
2018-12-02T09:20:42.683Z,2.22
2018-12-02T09:23:13.202Z,2.29
2018-12-02T09:25:41.843Z,2.32
2018-12-02T09:28:10.724Z,2.48
2018-12-02T09:30:39.707Z,2.55
2018-12-02T09:33:08.569Z,2.55
2018-12-02T09:35:37.374Z,2.61
2018-12-02T09:38:06.880Z,2.63
2018-12-02T09:40:35.664Z,2.63
2018-12-02T09:43:04.932Z,2.73
2018-12-02T09:45:33.795Z,2.86
2018-12-02T09:48:02.660Z,2.92
2018-12-02T09:50:31.465Z,2.91
2018-12-02T09:53:00.325Z,2.95
2018-12-02T09:55:30.990Z,2.95
2018-12-02T09:57:59.960Z,2.94
2018-12-02T10:00:33.891Z,2.98
2018-12-02T10:02:57.677Z,3.15
2018-12-02T10:05:26.509Z,3.19
2018-12-02T10:07:55.318Z,3.26
2018-12-02T10:10:24.252Z,3.26
2018-12-02T10:13:02.007Z,3.30
2018-12-02T10:15:30.881Z,3.28
2018-12-02T10:17:59.704Z,3.28
2018-12-02T10:20:28.571Z,3.36
2018-12-02T10:22:57.334Z,3.51
2018-12-02T10:25:26.272Z,3.49
2018-12-02T10:27:55.082Z,3.57
2018-12-02T10:30:24.898Z,3.48
2018-12-02T10:32:55.868Z,3.46
2018-12-02T10:35:24.736Z,3.57
2018-12-02T10:37:54.305Z,3.62
2018-12-02T10:40:25.081Z,3.66
2018-12-02T10:42:54.075Z,3.71
2018-12-02T10:45:24.155Z,3.79
2018-12-02T10:48:00.551Z,3.76
2018-12-02T10:50:34.401Z,3.67
2018-12-02T10:53:06.172Z,3.48
2018-12-02T10:55:44.529Z,3.60
2018-12-02T10:58:18.577Z,3.60
2018-12-02T11:00:53.167Z,3.64
2018-12-02T11:03:22.064Z,3.63
2018-12-02T11:05:50.948Z,3.62
2018-12-02T11:08:19.975Z,3.71
2018-12-02T11:10:48.861Z,3.75
2018-12-02T11:13:17.708Z,3.83
2018-12-02T11:15:46.547Z,3.91
2018-12-02T11:18:16.048Z,3.93
2018-12-02T11:20:45.351Z,4.02
2018-12-02T11:23:14.333Z,4.05
2018-12-02T11:25:43.296Z,4.04
2018-12-02T11:28:12.296Z,4.01
2018-12-02T11:30:41.303Z,4.02
2018-12-02T11:33:09.873Z,4.07
2018-12-02T11:35:38.827Z,4.05
2018-12-02T11:38:08.752Z,4.08
2018-12-02T11:40:38.578Z,4.16
2018-12-02T11:43:08.346Z,4.14
2018-12-02T11:45:37.260Z,4.21
2018-12-02T11:48:07.412Z,4.23
2018-12-02T11:50:36.321Z,4.28
2018-12-02T11:53:05.416Z,4.33
2018-12-02T11:55:34.285Z,4.37
2018-12-02T11:58:03.529Z,4.48
2018-12-02T12:00:33.652Z,4.59
2018-12-02T12:03:02.628Z,4.60
2018-12-02T12:05:31.516Z,4.65
2018-12-02T12:08:00.351Z,4.71
2018-12-02T12:10:29.535Z,4.84
2018-12-02T12:13:00.538Z,4.94
2018-12-02T12:15:30.342Z,5.03
2018-12-02T12:17:59.844Z,5.04
2018-12-02T12:20:31.870Z,5.01
2018-12-02T12:23:00.783Z,4.98
2018-12-02T12:25:32.676Z,5.03
2018-12-02T12:28:01.570Z,5.09
2018-12-02T12:30:31.627Z,5.13
2018-12-02T12:33:00.512Z,5.11
2018-12-02T12:35:29.335Z,5.15
2018-12-02T12:37:58.250Z,5.15
2018-12-02T12:40:28.586Z,5.22
2018-12-02T12:43:04.908Z,5.27
2018-12-02T12:45:33.736Z,5.30
2018-12-02T12:48:02.900Z,5.31
2018-12-02T12:50:32.037Z,5.27
2018-12-02T12:53:00.928Z,5.27
2018-12-02T12:55:29.676Z,5.31
2018-12-02T12:57:59.145Z,5.36
2018-12-02T13:00:27.987Z,5.39
2018-12-02T13:02:56.763Z,5.37
2018-12-02T13:05:27.804Z,5.44
2018-12-02T13:07:57.137Z,5.41
2018-12-02T13:10:26.137Z,5.42
2018-12-02T13:12:55.145Z,5.44
2018-12-02T13:15:24.692Z,5.46
2018-12-02T13:18:01.099Z,5.43
2018-12-02T13:20:40.464Z,5.51
2018-12-02T13:23:09.450Z,5.55
2018-12-02T13:25:38.416Z,5.59
2018-12-02T13:28:08.024Z,5.60
2018-12-02T13:30:36.892Z,5.60
2018-12-02T13:33:06.856Z,5.59
2018-12-02T13:35:36.320Z,5.60
2018-12-02T13:38:05.438Z,5.60
2018-12-02T13:40:34.578Z,5.60
2018-12-02T13:43:05.625Z,5.60
2018-12-02T13:45:34.531Z,5.61
2018-12-02T13:48:03.654Z,5.59
2018-12-02T13:50:32.514Z,5.54
2018-12-02T13:53:01.302Z,5.49
2018-12-02T13:55:31.269Z,5.39
2018-12-02T13:58:01.089Z,5.41
2018-12-02T14:00:31.030Z,5.39
2018-12-02T14:03:04.117Z,5.41
2018-12-02T14:05:33.085Z,5.37
2018-12-02T14:08:01.959Z,5.38
2018-12-02T14:10:31.221Z,5.36
2018-12-02T14:13:01.565Z,5.37
2018-12-02T14:15:36.946Z,5.30
2018-12-02T14:18:11.879Z,5.23
2018-12-02T14:20:40.720Z,5.14
2018-12-02T14:23:09.510Z,5.08
2018-12-02T14:25:38.563Z,5.07
2018-12-02T14:28:08.092Z,5.03
2018-12-02T14:30:37.081Z,4.98
2018-12-02T14:33:06.396Z,4.90
2018-12-02T14:35:35.246Z,4.84
2018-12-02T14:38:04.159Z,4.80
2018-12-02T14:40:33.031Z,4.77
2018-12-02T14:43:01.983Z,4.72
2018-12-02T14:45:30.876Z,4.64
2018-12-02T14:47:59.757Z,4.60
2018-12-02T14:50:28.600Z,4.54
2018-12-02T14:52:57.529Z,4.47
2018-12-02T14:55:26.343Z,4.39
2018-12-02T14:57:55.867Z,4.30
2018-12-02T15:00:24.750Z,4.21
2018-12-02T15:02:53.568Z,4.15
2018-12-02T15:05:22.381Z,4.09
2018-12-02T15:07:51.269Z,4.04
2018-12-02T15:10:20.171Z,4.00
2018-12-02T15:12:49.601Z,3.94
2018-12-02T15:15:19.146Z,3.90
2018-12-02T15:17:48.865Z,3.87
2018-12-02T15:20:19.395Z,3.83
2018-12-02T15:22:48.253Z,3.79
2018-12-02T15:25:17.126Z,3.74
2018-12-02T15:27:47.065Z,3.72
2018-12-02T15:30:17.356Z,3.72
2018-12-02T15:32:53.689Z,3.69
2018-12-02T15:35:22.516Z,3.67
2018-12-02T15:37:51.334Z,3.65
2018-12-02T15:40:20.256Z,3.63
2018-12-02T15:42:50.418Z,3.61
2018-12-02T15:45:20.025Z,3.57
2018-12-02T15:47:48.862Z,3.53
2018-12-02T15:50:19.605Z,3.49
2018-12-02T15:52:48.764Z,3.41
2018-12-02T15:55:20.835Z,3.32
2018-12-02T15:57:49.768Z,3.29
2018-12-02T16:07:08.703Z,3.08
2018-12-02T16:09:37.557Z,3.05
2018-12-02T16:12:06.687Z,3.04
2018-12-02T16:14:35.786Z,3.05
2018-12-02T16:17:04.577Z,3.04
2018-12-02T16:19:33.372Z,3.04
2018-12-02T16:22:02.258Z,3.04
2018-12-02T16:24:32.351Z,3.05
2018-12-02T16:27:01.686Z,2.97
2018-12-02T16:29:30.449Z,2.94
2018-12-02T16:32:02.130Z,2.89
2018-12-02T16:34:30.930Z,2.88
2018-12-02T16:36:59.742Z,2.83
2018-12-02T16:39:28.650Z,2.75
2018-12-02T16:41:57.516Z,2.77
2018-12-02T16:44:26.681Z,2.80
2018-12-02T16:46:55.689Z,2.75
2018-12-02T16:49:24.534Z,2.72
2018-12-02T16:51:53.417Z,2.70
2018-12-02T16:54:22.219Z,2.72
2018-12-02T16:56:51.769Z,2.76
2018-12-02T16:59:27.090Z,2.78
2018-12-02T17:01:58.004Z,2.69
2018-12-02T17:04:26.987Z,2.59
2018-12-02T17:06:55.814Z,2.59
2018-12-02T17:09:25.483Z,2.59
2018-12-02T17:11:54.466Z,2.59
2018-12-02T17:14:23.283Z,2.56
2018-12-02T17:16:52.063Z,2.57
2018-12-02T17:19:21.842Z,2.54
2018-12-02T17:21:50.790Z,2.49
2018-12-02T17:24:19.695Z,2.46
2018-12-02T17:26:48.520Z,2.42
2018-12-02T17:29:18.973Z,2.42
2018-12-02T17:32:07.798Z,2.47
2018-12-02T17:34:36.608Z,2.49
2018-12-02T17:37:05.648Z,2.47
2018-12-02T17:39:36.281Z,2.44
2018-12-02T17:42:08.633Z,2.37
2018-12-02T17:44:37.901Z,2.26
2018-12-02T17:47:07.262Z,2.29
2018-12-02T17:49:36.112Z,2.25
2018-12-02T17:52:05.534Z,2.25
2018-12-02T17:54:35.050Z,2.30
2018-12-02T17:57:03.969Z,2.33
2018-12-02T17:59:32.720Z,2.30
2018-12-02T18:02:01.661Z,2.32
2018-12-02T18:04:30.596Z,2.31
2018-12-02T18:06:59.440Z,2.25
2018-12-02T18:09:28.279Z,2.19
2018-12-02T18:11:57.093Z,2.14
2018-12-02T18:14:25.983Z,2.16
2018-12-02T18:16:54.868Z,2.07
2018-12-02T18:19:23.729Z,2.09
2018-12-02T18:21:52.601Z,2.08
2018-12-02T18:24:21.495Z,2.03
2018-12-02T18:26:50.279Z,2.03
2018-12-02T18:29:19.140Z,2.01
2018-12-02T18:31:48.069Z,1.95
2018-12-02T18:34:16.993Z,1.95
2018-12-02T18:36:45.790Z,1.95
2018-12-02T18:39:15.902Z,1.98
2018-12-02T18:41:48.540Z,1.96
2018-12-02T18:44:18.174Z,1.97
2018-12-02T18:46:47.216Z,2.04
2018-12-02T18:49:16.721Z,1.97
2018-12-02T18:51:45.672Z,1.98
2018-12-02T18:54:14.526Z,1.99
2018-12-02T18:56:44.042Z,2.00
2018-12-02T18:59:13.435Z,2.04
2018-12-02T19:01:42.281Z,2.04
2018-12-02T19:04:11.062Z,2.06
2018-12-02T19:06:39.920Z,2.03
2018-12-02T19:09:13.310Z,2.04
2018-12-02T19:11:42.611Z,1.94
2018-12-02T19:14:11.412Z,1.89
2018-12-02T19:16:40.219Z,1.91
2018-12-02T19:19:09.413Z,1.89
2018-12-02T19:21:38.175Z,1.85
2018-12-02T19:24:08.118Z,1.84
2018-12-02T19:26:36.954Z,1.81
2018-12-02T19:29:06.804Z,1.83
2018-12-02T19:31:35.661Z,1.81
2018-12-02T19:34:05.580Z,1.78
2018-12-02T19:36:36.699Z,1.80
2018-12-02T19:39:10.179Z,1.76
2018-12-02T19:41:38.995Z,1.70
2018-12-02T19:44:07.950Z,1.62
2018-12-02T19:46:36.752Z,1.60
2018-12-02T19:49:06.319Z,1.51
2018-12-02T19:51:35.114Z,1.51
2018-12-02T19:54:03.951Z,1.53
2018-12-02T19:56:32.729Z,1.56
2018-12-02T19:59:01.869Z,1.55
2018-12-02T20:01:30.647Z,1.53
2018-12-02T20:03:59.475Z,1.55
2018-12-02T20:06:28.257Z,1.58
2018-12-02T20:08:57.064Z,1.57
2018-12-02T20:11:25.880Z,1.60
2018-12-02T20:13:54.641Z,1.62
2018-12-02T20:16:24.029Z,1.56
2018-12-02T20:18:52.864Z,1.61
2018-12-02T20:21:23.263Z,1.59
2018-12-02T20:23:57.200Z,1.46
2018-12-02T20:26:26.190Z,1.47
2018-12-02T20:28:57.700Z,1.45
2018-12-02T20:31:28.301Z,1.48
2018-12-02T20:33:57.118Z,1.51
2018-12-02T20:36:25.969Z,1.48
2018-12-02T20:38:56.487Z,1.47
2018-12-02T20:41:25.445Z,1.48
2018-12-02T20:43:55.031Z,1.44
2018-12-02T20:46:23.874Z,1.44
2018-12-02T20:48:53.023Z,1.46
2018-12-02T20:51:21.809Z,1.33
2018-12-02T20:53:50.690Z,1.17
2018-12-02T20:56:19.503Z,1.03
2018-12-02T20:58:48.336Z,0.98
2018-12-02T21:01:17.191Z,1.01
2018-12-02T21:03:47.687Z,1.01
2018-12-02T21:06:20.931Z,0.98
2018-12-02T21:08:49.991Z,1.00
2018-12-02T21:11:18.849Z,1.05
2018-12-02T21:13:47.700Z,1.10
2018-12-02T21:16:16.490Z,1.08
2018-12-02T21:18:45.266Z,1.10
2018-12-02T21:21:14.056Z,1.11
2018-12-02T21:23:42.914Z,1.13
2018-12-02T21:26:12.545Z,1.11
2018-12-02T21:28:42.252Z,1.03
2018-12-02T21:31:11.127Z,0.93
2018-12-02T21:33:39.916Z,0.96
2018-12-02T21:36:08.731Z,1.01
2018-12-02T21:38:37.705Z,1.06
2018-12-02T21:41:06.902Z,1.14
2018-12-02T21:43:35.724Z,1.15
2018-12-02T21:46:05.087Z,1.17
2018-12-02T21:48:33.926Z,1.23
2018-12-02T21:51:02.740Z,1.20
2018-12-02T21:53:31.736Z,1.24
2018-12-02T21:56:00.505Z,1.21
2018-12-02T21:58:29.333Z,1.15
2018-12-02T22:01:03.332Z,1.07
2018-12-02T22:03:32.180Z,0.93
2018-12-02T22:06:01.113Z,0.91
2018-12-02T22:08:29.930Z,0.90
2018-12-02T22:10:58.719Z,0.89
2018-12-02T22:13:27.507Z,0.72
2018-12-02T22:15:56.342Z,0.68
2018-12-02T22:18:25.182Z,0.69
2018-12-02T22:20:54.360Z,0.78
2018-12-02T22:23:23.128Z,0.72
2018-12-02T22:25:51.912Z,0.74
2018-12-02T22:28:20.665Z,0.81
2018-12-02T22:30:49.449Z,0.88
2018-12-02T22:33:18.253Z,0.91
2018-12-02T22:35:47.082Z,0.94
2018-12-02T22:38:15.879Z,1.00
2018-12-02T22:40:44.704Z,0.99
2018-12-02T22:43:13.517Z,1.05
2018-12-02T22:45:42.372Z,1.07
2018-12-02T22:48:11.244Z,1.11
2018-12-02T22:50:40.061Z,1.10
2018-12-02T22:53:09.156Z,1.12
2018-12-02T22:55:37.941Z,1.12
2018-12-02T22:58:07.065Z,1.17
2018-12-02T23:00:41.538Z,1.17
2018-12-02T23:03:16.367Z,1.16
2018-12-02T23:05:46.249Z,1.11
2018-12-02T23:08:15.248Z,1.02
2018-12-02T23:10:44.025Z,0.90
2018-12-02T23:13:12.992Z,0.83
2018-12-02T23:15:42.467Z,0.76
2018-12-02T23:18:12.659Z,0.76
2018-12-02T23:20:41.633Z,0.77
2018-12-02T23:23:10.435Z,0.73
2018-12-02T23:25:39.288Z,0.74
2018-12-02T23:28:08.467Z,0.73
2018-12-02T23:30:37.466Z,0.67
2018-12-02T23:33:07.228Z,0.66
2018-12-02T23:35:36.139Z,0.67
2018-12-02T23:38:05.490Z,0.60
2018-12-02T23:40:34.398Z,0.61
2018-12-02T23:43:03.315Z,0.62
2018-12-02T23:45:32.130Z,0.55
2018-12-02T23:48:00.955Z,0.54
2018-12-02T23:50:29.847Z,0.55
2018-12-02T23:52:58.741Z,0.53
2018-12-02T23:55:27.609Z,0.54
2018-12-02T23:57:56.820Z,0.57
